Funk Island Bank: Past 24 Hour Conditions

 

Port aux Basques

08:30 PM NST 23 November 2014
This table is a summary of hourly weather conditions for the past 24 hours.
Date / Time
(NST)
Wind(knots) Conditions Visibility(km) Pressure(kPa) Air tempC) Relative humidity(%) Dew pointC) Wind Chill
23 November 2014
20:30 NW 12 gust 17 Clear 15 101.8 0 70 -5 *
19:30 NW 18 gust 27 Clear 15 101.7 1 69 -4 *
18:30 WNW 18 gust 28 Clear 15 101.6 1 67 -4 *
17:30 WNW 22 gust 30 Clear 15 101.5 2 71 -3 *
16:30 NW 21 gust 28 Sunny 15 101.3 2 72 -2 *
15:30 WNW 24 Mostly Cloudy 15 101.1 3 80 0 *
14:30 W 27 gust 32 Mostly Cloudy 15 101.1 4 80 0 *
13:30 WNW 26 Mostly Cloudy 15 101.0 3 76 -1 *
12:30 W 23 gust 30 Partly Cloudy 15 100.9 3 78 0 *
11:30 WNW 27 gust 32 Cloudy 15 100.9 2 79 -1 *
10:30 W 27 Cloudy 15 100.8 2 77 -1 *
9:30 W 21 gust 29 Light Snow 15 100.8 2 81 -1 *
8:30 W 25 Light Snow 10 100.8 1 84 -1 *
7:30 W 23 gust 29 Partly Cloudy 15 100.7 2 76 -2 *
6:30 W 24 Cloudy 15 100.7 2 77 -2 *
5:30 W 22 gust 29 Light Snow 15 100.7 2 75 -2 *
4:30 W 24 gust 29 Mostly Cloudy 15 100.7 2 75 -3 *
3:30 W 26 gust 31 Mostly Cloudy 15 100.6 1 73 -3 *
2:30 W 22 gust 29 Cloudy 15 100.7 1 76 -3 *
1:30 W 27 Light Snow 11 100.7 1 87 -1 *
0:30 W 25 gust 32 Cloudy 15 100.7 0 80 -3 *
22 November 2014
23:30 W 31 Cloudy 15 100.8 -1 75 -4 -9
22:30 WSW 29 gust 34 Light Snow 8 100.8 -2 81 -5 -11
21:30 WSW 32 gust 39 Light Snow 10 100.9 -2 84 -5 -12
20:30 WSW 31 gust 40 Light Snow 4 101.0 -3 85 -5 -12
 
Map of Atlantic - Newfoundland marine weather areas Southwestern Grand Banks - 44138 Banquereau - 44139 Tail of the Bank - 44140 Nickerson Bank - 44251 Northeast Burgeo Bank - 44255 Blanc-Sablon Airport Cap Whittle Chevery Natashquan Airport Heath Point Miscou Island Grand Étang Ingonish Beach North Mountain St.Paul Island J.A. Douglas McCurdy Sydney Airport Charlottetown Airport East Point North Cape Argentia Bonavista Burgeo Cape Race Corner Brook Daniel's Harbour Englee Ferolle Point La Scie Port aux Basques Rocky Harbour Sagona Island St. Anthony Airport St. John's Int'l Airport St. Lawrence Stephenville Airport Twillingate Winterland Wreckhouse Cartwright Airport Mary's Harbour Grates Cove Pool's Island Marticot Island Long Pond Îles de la Madeleine Airport
Legend: buoyBuoy land stationLand Station